sensor_id;sensor_type;location;lat;lon;timestamp;P1;durP1;ratioP1;P2;durP2;ratioP2
577;SDS011;275;48.492;9.214;2022-12-18T00:02:15;61.92;;;55.17;;
577;SDS011;275;48.492;9.214;2022-12-18T00:04:42;66.90;;;57.63;;
577;SDS011;275;48.492;9.214;2022-12-18T00:07:08;68.13;;;57.95;;
577;SDS011;275;48.492;9.214;2022-12-18T00:09:35;60.20;;;53.80;;
577;SDS011;275;48.492;9.214;2022-12-18T00:12:04;66.07;;;58.90;;
577;SDS011;275;48.492;9.214;2022-12-18T00:14:31;77.03;;;64.57;;
577;SDS011;275;48.492;9.214;2022-12-18T00:16:58;70.07;;;60.42;;
577;SDS011;275;48.492;9.214;2022-12-18T00:19:25;66.13;;;58.40;;
577;SDS011;275;48.492;9.214;2022-12-18T00:21:53;69.05;;;61.65;;
577;SDS011;275;48.492;9.214;2022-12-18T00:24:20;68.47;;;60.67;;
577;SDS011;275;48.492;9.214;2022-12-18T00:26:47;64.90;;;57.97;;
577;SDS011;275;48.492;9.214;2022-12-18T00:29:15;65.03;;;57.90;;
577;SDS011;275;48.492;9.214;2022-12-18T00:31:42;65.45;;;58.65;;
577;SDS011;275;48.492;9.214;2022-12-18T00:34:09;63.60;;;56.90;;
577;SDS011;275;48.492;9.214;2022-12-18T00:36:39;65.22;;;58.22;;
577;SDS011;275;48.492;9.214;2022-12-18T00:39:06;63.08;;;56.38;;
577;SDS011;275;48.492;9.214;2022-12-18T00:41:34;65.25;;;58.35;;
577;SDS011;275;48.492;9.214;2022-12-18T00:44:19;62.38;;;55.95;;
577;SDS011;275;48.492;9.214;2022-12-18T00:46:47;64.43;;;57.63;;
577;SDS011;275;48.492;9.214;2022-12-18T00:49:14;67.55;;;60.17;;
577;SDS011;275;48.492;9.214;2022-12-18T00:51:42;62.95;;;56.20;;
577;SDS011;275;48.492;9.214;2022-12-18T00:54:09;60.05;;;53.85;;
577;SDS011;275;48.492;9.214;2022-12-18T00:56:36;63.13;;;56.38;;
577;SDS011;275;48.492;9.214;2022-12-18T00:59:04;64.00;;;57.05;;
577;SDS011;275;48.492;9.214;2022-12-18T01:01:32;61.78;;;55.28;;
577;SDS011;275;48.492;9.214;2022-12-18T01:03:59;59.78;;;53.63;;
577;SDS011;275;48.492;9.214;2022-12-18T01:06:27;61.45;;;54.85;;
577;SDS011;275;48.492;9.214;2022-12-18T01:08:53;64.15;;;57.45;;
577;SDS011;275;48.492;9.214;2022-12-18T01:11:21;61.38;;;54.95;;
577;SDS011;275;48.492;9.214;2022-12-18T01:13:48;62.30;;;55.53;;
577;SDS011;275;48.492;9.214;2022-12-18T01:16:16;62.35;;;55.45;;
577;SDS011;275;48.492;9.214;2022-12-18T01:18:45;58.92;;;52.70;;
577;SDS011;275;48.492;9.214;2022-12-18T01:21:13;57.85;;;51.75;;
577;SDS011;275;48.492;9.214;2022-12-18T01:23:44;59.17;;;52.85;;
577;SDS011;275;48.492;9.214;2022-12-18T01:26:11;59.63;;;53.30;;
577;SDS011;275;48.492;9.214;2022-12-18T01:28:40;58.80;;;52.83;;
577;SDS011;275;48.492;9.214;2022-12-18T01:31:10;60.60;;;54.20;;
577;SDS011;275;48.492;9.214;2022-12-18T01:33:38;59.63;;;53.50;;
577;SDS011;275;48.492;9.214;2022-12-18T01:36:07;61.42;;;54.90;;
577;SDS011;275;48.492;9.214;2022-12-18T01:38:34;61.20;;;54.80;;
577;SDS011;275;48.492;9.214;2022-12-18T01:41:01;58.28;;;52.47;;
577;SDS011;275;48.492;9.214;2022-12-18T01:43:41;57.42;;;51.35;;
577;SDS011;275;48.492;9.214;2022-12-18T01:46:12;58.38;;;52.15;;
577;SDS011;275;48.492;9.214;2022-12-18T01:48:40;61.65;;;55.15;;
577;SDS011;275;48.492;9.214;2022-12-18T01:51:10;56.45;;;50.47;;
577;SDS011;275;48.492;9.214;2022-12-18T01:53:38;56.75;;;51.08;;
577;SDS011;275;48.492;9.214;2022-12-18T01:56:11;58.63;;;52.63;;
577;SDS011;275;48.492;9.214;2022-12-18T01:58:41;57.85;;;51.63;;
577;SDS011;275;48.492;9.214;2022-12-18T02:01:14;59.75;;;53.70;;
577;SDS011;275;48.492;9.214;2022-12-18T02:03:42;58.10;;;52.05;;
577;SDS011;275;48.492;9.214;2022-12-18T02:06:12;58.63;;;52.53;;
577;SDS011;275;48.492;9.214;2022-12-18T02:08:44;59.47;;;53.22;;
577;SDS011;275;48.492;9.214;2022-12-18T02:11:21;54.40;;;48.63;;
577;SDS011;275;48.492;9.214;2022-12-18T02:14:00;54.70;;;48.70;;
577;SDS011;275;48.492;9.214;2022-12-18T02:16:34;54.30;;;48.80;;
577;SDS011;275;48.492;9.214;2022-12-18T02:19:09;52.80;;;47.20;;
577;SDS011;275;48.492;9.214;2022-12-18T02:21:49;53.45;;;47.65;;
577;SDS011;275;48.492;9.214;2022-12-18T02:24:26;51.55;;;46.30;;
577;SDS011;275;48.492;9.214;2022-12-18T02:27:00;50.45;;;45.17;;
577;SDS011;275;48.492;9.214;2022-12-18T02:29:31;53.03;;;47.53;;
577;SDS011;275;48.492;9.214;2022-12-18T02:32:03;53.40;;;47.83;;
577;SDS011;275;48.492;9.214;2022-12-18T02:34:34;50.75;;;45.60;;
577;SDS011;275;48.492;9.214;2022-12-18T02:37:05;55.28;;;49.55;;
577;SDS011;275;48.492;9.214;2022-12-18T02:39:35;53.55;;;48.05;;
577;SDS011;275;48.492;9.214;2022-12-18T02:42:06;54.25;;;48.72;;
577;SDS011;275;48.492;9.214;2022-12-18T02:44:33;53.45;;;46.75;;
577;SDS011;275;48.492;9.214;2022-12-18T02:47:00;54.45;;;48.83;;
577;SDS011;275;48.492;9.214;2022-12-18T02:49:30;51.92;;;46.33;;
577;SDS011;275;48.492;9.214;2022-12-18T02:52:03;56.38;;;50.25;;
577;SDS011;275;48.492;9.214;2022-12-18T02:54:42;52.50;;;47.17;;
577;SDS011;275;48.492;9.214;2022-12-18T02:57:20;52.17;;;46.72;;
577;SDS011;275;48.492;9.214;2022-12-18T02:59:56;54.90;;;49.00;;
577;SDS011;275;48.492;9.214;2022-12-18T03:02:29;52.45;;;46.80;;
577;SDS011;275;48.492;9.214;2022-12-18T03:05:02;51.40;;;45.97;;
577;SDS011;275;48.492;9.214;2022-12-18T03:07:35;52.83;;;47.13;;
577;SDS011;275;48.492;9.214;2022-12-18T03:10:06;53.28;;;47.97;;
577;SDS011;275;48.492;9.214;2022-12-18T03:12:36;55.10;;;48.95;;
577;SDS011;275;48.492;9.214;2022-12-18T03:15:07;54.30;;;48.88;;
577;SDS011;275;48.492;9.214;2022-12-18T03:17:38;54.33;;;48.78;;
577;SDS011;275;48.492;9.214;2022-12-18T03:20:10;54.40;;;48.67;;
577;SDS011;275;48.492;9.214;2022-12-18T03:22:40;52.92;;;47.13;;
577;SDS011;275;48.492;9.214;2022-12-18T03:25:11;53.22;;;47.45;;
577;SDS011;275;48.492;9.214;2022-12-18T03:27:43;56.08;;;49.33;;
577;SDS011;275;48.492;9.214;2022-12-18T03:30:13;55.17;;;49.40;;
577;SDS011;275;48.492;9.214;2022-12-18T03:32:42;55.63;;;49.65;;
577;SDS011;275;48.492;9.214;2022-12-18T03:35:14;53.08;;;47.85;;
577;SDS011;275;48.492;9.214;2022-12-18T03:37:51;55.10;;;49.30;;
577;SDS011;275;48.492;9.214;2022-12-18T03:40:19;57.13;;;51.03;;
577;SDS011;275;48.492;9.214;2022-12-18T03:42:51;54.15;;;48.55;;
577;SDS011;275;48.492;9.214;2022-12-18T03:45:25;55.78;;;49.97;;
577;SDS011;275;48.492;9.214;2022-12-18T03:47:58;53.22;;;47.63;;
577;SDS011;275;48.492;9.214;2022-12-18T03:50:29;52.80;;;46.78;;
577;SDS011;275;48.492;9.214;2022-12-18T03:53:06;55.95;;;49.35;;
577;SDS011;275;48.492;9.214;2022-12-18T03:55:44;52.50;;;46.90;;
577;SDS011;275;48.492;9.214;2022-12-18T03:58:15;51.97;;;45.63;;
577;SDS011;275;48.492;9.214;2022-12-18T04:00:45;55.33;;;49.20;;
577;SDS011;275;48.492;9.214;2022-12-18T04:03:14;53.35;;;47.58;;
577;SDS011;275;48.492;9.214;2022-12-18T04:05:42;55.10;;;49.10;;
577;SDS011;275;48.492;9.214;2022-12-18T04:08:10;53.40;;;47.65;;
577;SDS011;275;48.492;9.214;2022-12-18T04:10:39;53.90;;;48.47;;
577;SDS011;275;48.492;9.214;2022-12-18T04:13:05;53.55;;;48.10;;
577;SDS011;275;48.492;9.214;2022-12-18T04:15:34;51.60;;;45.75;;
577;SDS011;275;48.492;9.214;2022-12-18T04:18:02;53.97;;;48.08;;
577;SDS011;275;48.492;9.214;2022-12-18T04:20:29;54.63;;;48.30;;
577;SDS011;275;48.492;9.214;2022-12-18T04:22:56;53.75;;;47.40;;
577;SDS011;275;48.492;9.214;2022-12-18T04:25:23;53.78;;;47.88;;
577;SDS011;275;48.492;9.214;2022-12-18T04:27:49;51.42;;;45.92;;
577;SDS011;275;48.492;9.214;2022-12-18T04:30:16;57.38;;;46.38;;
577;SDS011;275;48.492;9.214;2022-12-18T04:32:44;57.03;;;47.90;;
577;SDS011;275;48.492;9.214;2022-12-18T04:35:11;55.17;;;48.03;;
577;SDS011;275;48.492;9.214;2022-12-18T04:37:38;55.03;;;47.58;;
577;SDS011;275;48.492;9.214;2022-12-18T04:40:05;51.13;;;45.60;;
577;SDS011;275;48.492;9.214;2022-12-18T04:42:33;54.30;;;48.45;;
577;SDS011;275;48.492;9.214;2022-12-18T04:45:00;52.65;;;47.05;;
577;SDS011;275;48.492;9.214;2022-12-18T04:47:26;52.80;;;47.00;;
577;SDS011;275;48.492;9.214;2022-12-18T04:49:55;52.65;;;47.22;;
577;SDS011;275;48.492;9.214;2022-12-18T04:52:21;58.00;;;52.13;;
577;SDS011;275;48.492;9.214;2022-12-18T04:54:48;59.70;;;52.63;;
577;SDS011;275;48.492;9.214;2022-12-18T04:57:15;56.72;;;50.55;;
577;SDS011;275;48.492;9.214;2022-12-18T04:59:43;56.90;;;50.85;;
577;SDS011;275;48.492;9.214;2022-12-18T05:02:10;60.90;;;51.42;;
577;SDS011;275;48.492;9.214;2022-12-18T05:04:36;61.92;;;52.28;;
577;SDS011;275;48.492;9.214;2022-12-18T05:07:05;56.80;;;50.45;;
577;SDS011;275;48.492;9.214;2022-12-18T05:09:31;54.22;;;48.50;;
577;SDS011;275;48.492;9.214;2022-12-18T05:11:58;57.22;;;51.30;;
577;SDS011;275;48.492;9.214;2022-12-18T05:14:25;57.30;;;51.30;;
577;SDS011;275;48.492;9.214;2022-12-18T05:16:52;54.75;;;48.85;;
577;SDS011;275;48.492;9.214;2022-12-18T05:19:19;54.67;;;48.33;;
577;SDS011;275;48.492;9.214;2022-12-18T05:21:46;55.15;;;49.35;;
577;SDS011;275;48.492;9.214;2022-12-18T05:24:14;51.50;;;45.45;;
577;SDS011;275;48.492;9.214;2022-12-18T05:26:41;54.25;;;48.45;;
577;SDS011;275;48.492;9.214;2022-12-18T05:29:07;52.63;;;46.85;;
577;SDS011;275;48.492;9.214;2022-12-18T05:31:37;52.17;;;46.55;;
577;SDS011;275;48.492;9.214;2022-12-18T05:34:04;49.60;;;43.17;;
577;SDS011;275;48.492;9.214;2022-12-18T05:36:30;50.95;;;45.38;;
577;SDS011;275;48.492;9.214;2022-12-18T05:38:57;49.47;;;44.33;;
577;SDS011;275;48.492;9.214;2022-12-18T05:41:26;49.85;;;44.20;;
577;SDS011;275;48.492;9.214;2022-12-18T05:43:53;49.08;;;43.55;;
577;SDS011;275;48.492;9.214;2022-12-18T05:46:20;53.60;;;47.90;;
577;SDS011;275;48.492;9.214;2022-12-18T05:48:47;49.80;;;44.58;;
577;SDS011;275;48.492;9.214;2022-12-18T05:51:15;48.25;;;43.17;;
577;SDS011;275;48.492;9.214;2022-12-18T05:53:44;52.28;;;46.72;;
577;SDS011;275;48.492;9.214;2022-12-18T05:56:13;50.92;;;45.65;;
577;SDS011;275;48.492;9.214;2022-12-18T05:58:43;50.15;;;44.83;;
577;SDS011;275;48.492;9.214;2022-12-18T06:01:10;51.13;;;45.70;;
577;SDS011;275;48.492;9.214;2022-12-18T06:03:39;51.75;;;46.05;;
577;SDS011;275;48.492;9.214;2022-12-18T06:06:12;54.47;;;47.65;;
577;SDS011;275;48.492;9.214;2022-12-18T06:08:40;58.55;;;50.35;;
577;SDS011;275;48.492;9.214;2022-12-18T06:11:07;57.33;;;51.10;;
577;SDS011;275;48.492;9.214;2022-12-18T06:13:33;55.30;;;48.90;;
577;SDS011;275;48.492;9.214;2022-12-18T06:16:02;54.17;;;47.72;;
577;SDS011;275;48.492;9.214;2022-12-18T06:18:30;55.67;;;49.50;;
577;SDS011;275;48.492;9.214;2022-12-18T06:20:57;53.83;;;48.08;;
577;SDS011;275;48.492;9.214;2022-12-18T06:23:25;58.25;;;49.50;;
577;SDS011;275;48.492;9.214;2022-12-18T06:25:53;55.45;;;49.55;;
577;SDS011;275;48.492;9.214;2022-12-18T06:28:20;51.97;;;46.38;;
577;SDS011;275;48.492;9.214;2022-12-18T06:30:47;54.85;;;46.97;;
577;SDS011;275;48.492;9.214;2022-12-18T06:33:16;50.92;;;43.80;;
577;SDS011;275;48.492;9.214;2022-12-18T06:35:42;53.05;;;44.63;;
577;SDS011;275;48.492;9.214;2022-12-18T06:38:09;46.33;;;41.40;;
577;SDS011;275;48.492;9.214;2022-12-18T06:40:36;44.15;;;39.45;;
577;SDS011;275;48.492;9.214;2022-12-18T06:43:04;50.25;;;44.00;;
577;SDS011;275;48.492;9.214;2022-12-18T06:45:31;54.22;;;45.53;;
577;SDS011;275;48.492;9.214;2022-12-18T06:47:58;50.03;;;44.42;;
577;SDS011;275;48.492;9.214;2022-12-18T06:50:26;52.92;;;47.13;;
577;SDS011;275;48.492;9.214;2022-12-18T06:52:53;52.55;;;46.83;;
577;SDS011;275;48.492;9.214;2022-12-18T06:55:20;55.35;;;46.20;;
577;SDS011;275;48.492;9.214;2022-12-18T06:57:46;53.53;;;47.63;;
577;SDS011;275;48.492;9.214;2022-12-18T07:00:14;56.60;;;49.80;;
577;SDS011;275;48.492;9.214;2022-12-18T07:02:41;56.55;;;48.67;;
577;SDS011;275;48.492;9.214;2022-12-18T07:05:07;57.03;;;49.47;;
577;SDS011;275;48.492;9.214;2022-12-18T07:07:36;55.92;;;49.05;;
577;SDS011;275;48.492;9.214;2022-12-18T07:10:03;53.13;;;46.47;;
577;SDS011;275;48.492;9.214;2022-12-18T07:12:30;55.15;;;49.33;;
577;SDS011;275;48.492;9.214;2022-12-18T07:14:57;57.22;;;51.03;;
577;SDS011;275;48.492;9.214;2022-12-18T07:17:24;49.20;;;44.00;;
577;SDS011;275;48.492;9.214;2022-12-18T07:19:51;54.75;;;49.08;;
577;SDS011;275;48.492;9.214;2022-12-18T07:22:17;52.92;;;45.28;;
577;SDS011;275;48.492;9.214;2022-12-18T07:24:46;52.08;;;46.38;;
577;SDS011;275;48.492;9.214;2022-12-18T07:27:15;52.15;;;46.75;;
577;SDS011;275;48.492;9.214;2022-12-18T07:29:42;51.30;;;45.80;;
577;SDS011;275;48.492;9.214;2022-12-18T07:32:09;52.78;;;45.55;;
577;SDS011;275;48.492;9.214;2022-12-18T07:34:36;49.05;;;43.67;;
577;SDS011;275;48.492;9.214;2022-12-18T07:37:03;48.28;;;43.33;;
577;SDS011;275;48.492;9.214;2022-12-18T07:39:30;49.90;;;44.35;;
577;SDS011;275;48.492;9.214;2022-12-18T07:41:58;48.60;;;43.58;;
577;SDS011;275;48.492;9.214;2022-12-18T07:44:42;51.67;;;45.97;;
577;SDS011;275;48.492;9.214;2022-12-18T07:47:09;51.97;;;46.55;;
577;SDS011;275;48.492;9.214;2022-12-18T07:49:36;51.75;;;46.20;;
577;SDS011;275;48.492;9.214;2022-12-18T07:52:03;53.63;;;47.85;;
577;SDS011;275;48.492;9.214;2022-12-18T07:54:30;49.60;;;44.40;;
577;SDS011;275;48.492;9.214;2022-12-18T07:56:58;52.28;;;46.67;;
577;SDS011;275;48.492;9.214;2022-12-18T07:59:26;51.53;;;46.13;;
577;SDS011;275;48.492;9.214;2022-12-18T08:01:52;52.83;;;47.28;;
577;SDS011;275;48.492;9.214;2022-12-18T08:04:19;51.35;;;45.70;;
577;SDS011;275;48.492;9.214;2022-12-18T08:06:46;50.03;;;44.65;;
577;SDS011;275;48.492;9.214;2022-12-18T08:09:13;51.53;;;43.97;;
577;SDS011;275;48.492;9.214;2022-12-18T08:11:40;50.17;;;44.88;;
577;SDS011;275;48.492;9.214;2022-12-18T08:14:08;49.75;;;44.40;;
577;SDS011;275;48.492;9.214;2022-12-18T08:16:35;52.35;;;46.63;;
577;SDS011;275;48.492;9.214;2022-12-18T08:19:02;48.60;;;43.65;;
577;SDS011;275;48.492;9.214;2022-12-18T08:21:30;46.08;;;41.35;;
577;SDS011;275;48.492;9.214;2022-12-18T08:23:58;50.45;;;45.25;;
577;SDS011;275;48.492;9.214;2022-12-18T08:26:28;48.17;;;43.33;;
577;SDS011;275;48.492;9.214;2022-12-18T08:28:56;48.97;;;43.60;;
577;SDS011;275;48.492;9.214;2022-12-18T08:31:25;48.50;;;43.45;;
577;SDS011;275;48.492;9.214;2022-12-18T08:33:54;46.97;;;41.95;;
577;SDS011;275;48.492;9.214;2022-12-18T08:36:21;46.08;;;41.20;;
577;SDS011;275;48.492;9.214;2022-12-18T08:38:49;49.75;;;44.92;;
577;SDS011;275;48.492;9.214;2022-12-18T08:41:16;46.17;;;41.15;;
577;SDS011;275;48.492;9.214;2022-12-18T08:43:44;48.85;;;43.70;;
577;SDS011;275;48.492;9.214;2022-12-18T08:46:32;49.83;;;44.55;;
577;SDS011;275;48.492;9.214;2022-12-18T08:49:01;47.72;;;42.83;;
577;SDS011;275;48.492;9.214;2022-12-18T08:51:29;47.80;;;42.80;;
577;SDS011;275;48.492;9.214;2022-12-18T08:53:56;48.35;;;43.60;;
577;SDS011;275;48.492;9.214;2022-12-18T08:56:23;50.05;;;44.95;;
577;SDS011;275;48.492;9.214;2022-12-18T08:58:50;52.13;;;46.83;;
577;SDS011;275;48.492;9.214;2022-12-18T09:01:18;49.38;;;44.50;;
577;SDS011;275;48.492;9.214;2022-12-18T09:03:47;49.90;;;44.65;;
577;SDS011;275;48.492;9.214;2022-12-18T09:06:14;49.03;;;44.22;;
577;SDS011;275;48.492;9.214;2022-12-18T09:08:42;46.75;;;41.92;;
577;SDS011;275;48.492;9.214;2022-12-18T09:11:11;47.90;;;43.00;;
577;SDS011;275;48.492;9.214;2022-12-18T09:13:40;46.67;;;41.88;;
577;SDS011;275;48.492;9.214;2022-12-18T09:16:07;50.90;;;44.45;;
577;SDS011;275;48.492;9.214;2022-12-18T09:18:34;51.17;;;44.88;;
577;SDS011;275;48.492;9.214;2022-12-18T09:21:08;50.70;;;45.10;;
577;SDS011;275;48.492;9.214;2022-12-18T09:23:35;46.42;;;41.53;;
577;SDS011;275;48.492;9.214;2022-12-18T09:26:03;48.33;;;43.25;;
577;SDS011;275;48.492;9.214;2022-12-18T09:28:30;46.22;;;41.22;;
577;SDS011;275;48.492;9.214;2022-12-18T09:30:57;47.90;;;42.95;;
577;SDS011;275;48.492;9.214;2022-12-18T09:33:24;48.20;;;43.17;;
577;SDS011;275;48.492;9.214;2022-12-18T09:35:51;48.88;;;43.95;;
577;SDS011;275;48.492;9.214;2022-12-18T09:38:19;47.15;;;42.28;;
577;SDS011;275;48.492;9.214;2022-12-18T09:40:48;55.45;;;47.63;;
577;SDS011;275;48.492;9.214;2022-12-18T09:43:18;51.10;;;45.63;;
577;SDS011;275;48.492;9.214;2022-12-18T09:45:49;48.15;;;43.05;;
577;SDS011;275;48.492;9.214;2022-12-18T09:48:21;49.17;;;43.88;;
577;SDS011;275;48.492;9.214;2022-12-18T09:50:53;50.38;;;44.38;;
577;SDS011;275;48.492;9.214;2022-12-18T09:53:27;49.97;;;44.60;;
577;SDS011;275;48.492;9.214;2022-12-18T09:55:57;53.78;;;48.10;;
577;SDS011;275;48.492;9.214;2022-12-18T09:58:26;49.45;;;44.33;;
577;SDS011;275;48.492;9.214;2022-12-18T10:00:57;52.30;;;46.67;;
577;SDS011;275;48.492;9.214;2022-12-18T10:03:24;53.47;;;47.97;;
577;SDS011;275;48.492;9.214;2022-12-18T10:05:54;53.58;;;47.75;;
577;SDS011;275;48.492;9.214;2022-12-18T10:08:32;54.88;;;49.05;;
577;SDS011;275;48.492;9.214;2022-12-18T10:11:12;54.03;;;48.13;;
577;SDS011;275;48.492;9.214;2022-12-18T10:13:52;56.90;;;50.75;;
577;SDS011;275;48.492;9.214;2022-12-18T10:16:24;51.95;;;46.20;;
577;SDS011;275;48.492;9.214;2022-12-18T10:19:05;51.95;;;46.30;;
577;SDS011;275;48.492;9.214;2022-12-18T10:21:45;54.08;;;44.97;;
577;SDS011;275;48.492;9.214;2022-12-18T10:24:20;50.78;;;44.17;;
577;SDS011;275;48.492;9.214;2022-12-18T10:26:52;49.13;;;43.38;;
577;SDS011;275;48.492;9.214;2022-12-18T10:29:26;48.85;;;41.80;;
577;SDS011;275;48.492;9.214;2022-12-18T10:31:53;48.42;;;43.20;;
577;SDS011;275;48.492;9.214;2022-12-18T10:34:20;48.75;;;43.08;;
577;SDS011;275;48.492;9.214;2022-12-18T10:36:47;49.13;;;42.88;;
577;SDS011;275;48.492;9.214;2022-12-18T10:39:15;51.38;;;44.63;;
577;SDS011;275;48.492;9.214;2022-12-18T10:41:44;48.80;;;43.65;;
577;SDS011;275;48.492;9.214;2022-12-18T10:44:14;52.20;;;44.22;;
577;SDS011;275;48.492;9.214;2022-12-18T10:46:43;51.67;;;44.88;;
577;SDS011;275;48.492;9.214;2022-12-18T10:49:25;54.03;;;43.03;;
577;SDS011;275;48.492;9.214;2022-12-18T10:52:04;52.95;;;39.65;;
577;SDS011;275;48.492;9.214;2022-12-18T10:54:40;52.03;;;41.33;;
577;SDS011;275;48.492;9.214;2022-12-18T10:57:28;53.10;;;37.10;;
577;SDS011;275;48.492;9.214;2022-12-18T10:59:57;47.40;;;36.20;;
577;SDS011;275;48.492;9.214;2022-12-18T11:02:26;49.28;;;39.42;;
577;SDS011;275;48.492;9.214;2022-12-18T11:04:59;49.58;;;41.53;;
577;SDS011;275;48.492;9.214;2022-12-18T11:07:26;46.72;;;39.28;;
577;SDS011;275;48.492;9.214;2022-12-18T11:10:15;51.10;;;42.22;;
577;SDS011;275;48.492;9.214;2022-12-18T11:12:46;44.95;;;39.85;;
577;SDS011;275;48.492;9.214;2022-12-18T11:15:15;50.40;;;42.15;;
577;SDS011;275;48.492;9.214;2022-12-18T11:17:44;47.30;;;41.83;;
577;SDS011;275;48.492;9.214;2022-12-18T11:20:24;46.53;;;40.20;;
577;SDS011;275;48.492;9.214;2022-12-18T11:22:57;45.60;;;40.67;;
577;SDS011;275;48.492;9.214;2022-12-18T11:25:25;46.53;;;41.25;;
577;SDS011;275;48.492;9.214;2022-12-18T11:27:58;51.75;;;45.95;;
577;SDS011;275;48.492;9.214;2022-12-18T11:30:26;51.05;;;44.90;;
577;SDS011;275;48.492;9.214;2022-12-18T11:32:59;51.83;;;45.72;;
577;SDS011;275;48.492;9.214;2022-12-18T11:35:35;48.25;;;42.67;;
577;SDS011;275;48.492;9.214;2022-12-18T11:38:10;48.80;;;42.80;;
577;SDS011;275;48.492;9.214;2022-12-18T11:40:44;50.30;;;43.47;;
577;SDS011;275;48.492;9.214;2022-12-18T11:43:20;51.88;;;46.28;;
577;SDS011;275;48.492;9.214;2022-12-18T11:45:52;51.00;;;44.65;;
577;SDS011;275;48.492;9.214;2022-12-18T11:48:22;55.67;;;47.03;;
577;SDS011;275;48.492;9.214;2022-12-18T11:50:53;55.75;;;48.15;;
577;SDS011;275;48.492;9.214;2022-12-18T11:53:22;54.42;;;48.53;;
577;SDS011;275;48.492;9.214;2022-12-18T11:55:56;58.38;;;49.83;;
577;SDS011;275;48.492;9.214;2022-12-18T11:58:40;56.42;;;49.05;;
577;SDS011;275;48.492;9.214;2022-12-18T12:01:15;62.70;;;50.72;;
577;SDS011;275;48.492;9.214;2022-12-18T12:03:57;59.33;;;50.95;;
577;SDS011;275;48.492;9.214;2022-12-18T12:06:39;62.17;;;53.92;;
577;SDS011;275;48.492;9.214;2022-12-18T12:09:17;57.67;;;50.90;;
577;SDS011;275;48.492;9.214;2022-12-18T12:11:56;54.65;;;48.40;;
577;SDS011;275;48.492;9.214;2022-12-18T12:14:37;57.30;;;51.30;;
577;SDS011;275;48.492;9.214;2022-12-18T12:17:13;53.35;;;47.50;;
577;SDS011;275;48.492;9.214;2022-12-18T12:19:49;50.17;;;44.85;;
577;SDS011;275;48.492;9.214;2022-12-18T12:22:24;52.67;;;46.15;;
577;SDS011;275;48.492;9.214;2022-12-18T12:24:59;48.83;;;41.58;;
577;SDS011;275;48.492;9.214;2022-12-18T12:27:36;54.33;;;45.17;;
577;SDS011;275;48.492;9.214;2022-12-18T12:30:16;62.97;;;55.72;;
577;SDS011;275;48.492;9.214;2022-12-18T12:32:54;50.45;;;43.28;;
577;SDS011;275;48.492;9.214;2022-12-18T12:35:35;52.63;;;42.25;;
577;SDS011;275;48.492;9.214;2022-12-18T12:38:12;50.35;;;42.17;;
577;SDS011;275;48.492;9.214;2022-12-18T12:40:44;45.90;;;38.03;;
577;SDS011;275;48.492;9.214;2022-12-18T12:43:19;42.65;;;37.90;;
577;SDS011;275;48.492;9.214;2022-12-18T12:45:52;48.28;;;39.70;;
577;SDS011;275;48.492;9.214;2022-12-18T12:48:24;44.85;;;36.17;;
577;SDS011;275;48.492;9.214;2022-12-18T12:50:59;48.50;;;38.78;;
577;SDS011;275;48.492;9.214;2022-12-18T12:53:30;42.50;;;35.72;;
577;SDS011;275;48.492;9.214;2022-12-18T12:56:00;45.03;;;38.22;;
577;SDS011;275;48.492;9.214;2022-12-18T12:58:31;43.78;;;37.70;;
577;SDS011;275;48.492;9.214;2022-12-18T13:01:08;38.83;;;34.25;;
577;SDS011;275;48.492;9.214;2022-12-18T13:03:44;49.50;;;44.30;;
577;SDS011;275;48.492;9.214;2022-12-18T13:06:19;43.15;;;36.75;;
577;SDS011;275;48.492;9.214;2022-12-18T13:08:55;44.08;;;37.78;;
577;SDS011;275;48.492;9.214;2022-12-18T13:11:30;42.10;;;37.50;;
577;SDS011;275;48.492;9.214;2022-12-18T13:14:23;44.20;;;37.65;;
577;SDS011;275;48.492;9.214;2022-12-18T13:20:08;45.92;;;40.13;;
577;SDS011;275;48.492;9.214;2022-12-18T13:22:38;45.40;;;38.65;;
577;SDS011;275;48.492;9.214;2022-12-18T13:28:10;62.17;;;55.30;;
577;SDS011;275;48.492;9.214;2022-12-18T13:30:43;57.30;;;51.13;;
577;SDS011;275;48.492;9.214;2022-12-18T13:33:40;55.60;;;49.60;;
577;SDS011;275;48.492;9.214;2022-12-18T13:36:11;54.53;;;48.67;;
577;SDS011;275;48.492;9.214;2022-12-18T13:38:40;54.28;;;48.45;;
577;SDS011;275;48.492;9.214;2022-12-18T13:41:24;60.70;;;53.58;;
577;SDS011;275;48.492;9.214;2022-12-18T13:43:53;54.85;;;48.60;;
577;SDS011;275;48.492;9.214;2022-12-18T13:46:23;55.15;;;46.50;;
577;SDS011;275;48.492;9.214;2022-12-18T13:48:59;56.03;;;50.10;;
577;SDS011;275;48.492;9.214;2022-12-18T13:51:28;51.58;;;46.20;;
577;SDS011;275;48.492;9.214;2022-12-18T13:53:59;88.55;;;58.92;;
577;SDS011;275;48.492;9.214;2022-12-18T13:56:27;52.50;;;46.80;;
577;SDS011;275;48.492;9.214;2022-12-18T13:59:08;46.17;;;41.15;;
577;SDS011;275;48.492;9.214;2022-12-18T14:01:47;51.38;;;45.80;;
577;SDS011;275;48.492;9.214;2022-12-18T14:04:22;36.17;;;29.20;;
577;SDS011;275;48.492;9.214;2022-12-18T14:06:55;51.13;;;45.60;;
577;SDS011;275;48.492;9.214;2022-12-18T14:09:25;39.65;;;33.80;;
577;SDS011;275;48.492;9.214;2022-12-18T14:11:55;41.08;;;33.15;;
577;SDS011;275;48.492;9.214;2022-12-18T14:14:44;37.63;;;30.00;;
577;SDS011;275;48.492;9.214;2022-12-18T14:17:13;37.53;;;32.13;;
577;SDS011;275;48.492;9.214;2022-12-18T14:19:43;40.13;;;32.38;;
577;SDS011;275;48.492;9.214;2022-12-18T14:22:16;39.05;;;31.90;;
577;SDS011;275;48.492;9.214;2022-12-18T14:24:44;41.67;;;35.33;;
577;SDS011;275;48.492;9.214;2022-12-18T14:27:20;37.20;;;29.05;;
577;SDS011;275;48.492;9.214;2022-12-18T14:29:49;43.67;;;35.65;;
577;SDS011;275;48.492;9.214;2022-12-18T14:32:17;44.92;;;35.28;;
577;SDS011;275;48.492;9.214;2022-12-18T14:34:47;40.90;;;33.60;;
577;SDS011;275;48.492;9.214;2022-12-18T14:37:16;40.13;;;32.22;;
577;SDS011;275;48.492;9.214;2022-12-18T14:39:53;36.95;;;29.95;;
577;SDS011;275;48.492;9.214;2022-12-18T14:42:21;36.97;;;30.85;;
577;SDS011;275;48.492;9.214;2022-12-18T14:44:52;37.05;;;29.80;;
577;SDS011;275;48.492;9.214;2022-12-18T14:47:59;38.30;;;31.20;;
577;SDS011;275;48.492;9.214;2022-12-18T14:50:27;39.08;;;31.50;;
577;SDS011;275;48.492;9.214;2022-12-18T14:52:55;42.13;;;35.20;;
577;SDS011;275;48.492;9.214;2022-12-18T14:55:22;44.45;;;35.75;;
577;SDS011;275;48.492;9.214;2022-12-18T14:57:49;39.80;;;29.45;;
577;SDS011;275;48.492;9.214;2022-12-18T15:00:18;35.65;;;29.60;;
577;SDS011;275;48.492;9.214;2022-12-18T15:02:46;37.17;;;30.10;;
577;SDS011;275;48.492;9.214;2022-12-18T15:05:19;34.60;;;28.17;;
577;SDS011;275;48.492;9.214;2022-12-18T15:07:52;38.80;;;33.40;;
577;SDS011;275;48.492;9.214;2022-12-18T15:10:21;37.75;;;31.80;;
577;SDS011;275;48.492;9.214;2022-12-18T15:12:50;39.47;;;30.85;;
577;SDS011;275;48.492;9.214;2022-12-18T15:18:18;36.63;;;29.55;;
577;SDS011;275;48.492;9.214;2022-12-18T15:20:48;34.92;;;28.85;;
577;SDS011;275;48.492;9.214;2022-12-18T15:23:18;39.97;;;32.38;;
577;SDS011;275;48.492;9.214;2022-12-18T15:25:48;35.53;;;27.50;;
577;SDS011;275;48.492;9.214;2022-12-18T15:28:24;43.25;;;32.42;;
577;SDS011;275;48.492;9.214;2022-12-18T15:31:17;40.88;;;31.00;;
577;SDS011;275;48.492;9.214;2022-12-18T15:34:08;41.85;;;31.98;;
577;SDS011;275;48.492;9.214;2022-12-18T15:36:38;42.00;;;33.80;;
577;SDS011;275;48.492;9.214;2022-12-18T15:39:10;41.63;;;31.60;;
577;SDS011;275;48.492;9.214;2022-12-18T15:41:38;46.08;;;33.15;;
577;SDS011;275;48.492;9.214;2022-12-18T15:44:16;43.25;;;33.63;;
577;SDS011;275;48.492;9.214;2022-12-18T15:46:47;42.35;;;34.60;;